Hovedside
METAR-TAF:

METAR-TAF

Lufthavner :

Svolvær, Norge

Svolvær lufthavn

breddegrad: 68-15N, lengdegrad: 014-40E, høyde over havet: 0 m

Gjeldene værobservasjon

Denne rapporten ble laget for 51 minutter siden, klokken 19:20 UTC
Vind 16 kt fra Nord
Temperatur 6°C
Luftfuktighet 56%
Trykk 1013 hPa
Sikt 10 km eller mer
Spredte skyer i en høyde av 4000 ft

METAR: ENSH 281920Z 36016KT 9999 SCT040 06/M02 Q1013

Tid: 22:11 (20:11 UTC)

Varsel

Denne rapporten ble laget for 6 timer og 11 minutter siden, klokken 14:00 UTC
Varsel gyldig fra 28. klokken 15 UTC til 28. klokken 20 UTC
Vind 12 kt fra Nord
Sikt 10 km eller mer
Spredte skyer i en høyde av 4000 ft

TAF: ENSH 281400Z 2815/2820 01012KT 9999 SCT040

Værobservasjoner og værvarsel for over 4000 flyplasser (METAR- og TAF-rapporter).

Tilgjengelige stasjoner er representert av de røde og gule prikkene på kartet.

Hold musepekeren over prikken for å se navnet på stasjonen.

Klikk så for å se værobservasjoner og -varsler.

For å forandre kartet kan du klikke på den grønne knappen med svart kryss for å zoome inn, på den grønne knappen med strek for å zoome ut, eller på de grønne pilene for å se tilstøtende kart.


METAR-TAF: